createdAt,value
2023-01-29T00:01:36.832Z,3.41
2023-01-29T00:03:44.917Z,3.41
2023-01-29T00:05:50.057Z,3.40
2023-01-29T00:07:56.628Z,3.41
2023-01-29T00:10:01.756Z,3.39
2023-01-29T00:12:13.134Z,3.42
2023-01-29T00:14:22.566Z,3.43
2023-01-29T00:16:27.655Z,3.48
2023-01-29T00:18:33.291Z,3.46
2023-01-29T00:20:38.207Z,3.48
2023-01-29T00:22:43.130Z,3.48
2023-01-29T00:24:55.533Z,3.51
2023-01-29T00:27:02.403Z,3.48
2023-01-29T00:29:07.638Z,3.51
2023-01-29T00:31:18.718Z,3.52
2023-01-29T00:33:25.024Z,3.54
2023-01-29T00:35:31.067Z,3.54
2023-01-29T00:37:39.170Z,3.52
2023-01-29T00:39:48.111Z,3.51
2023-01-29T00:42:05.586Z,3.49
2023-01-29T00:44:23.512Z,3.50
2023-01-29T00:46:31.073Z,3.51
2023-01-29T00:48:36.333Z,3.54
2023-01-29T00:50:41.395Z,3.54
2023-01-29T00:52:46.618Z,3.52
2023-01-29T00:54:51.755Z,3.52
2023-01-29T00:56:56.902Z,3.52
2023-01-29T00:59:01.907Z,3.52
2023-01-29T01:01:07.278Z,3.50
2023-01-29T01:03:18.236Z,3.50
2023-01-29T01:05:31.244Z,3.49
2023-01-29T01:07:37.005Z,3.56
2023-01-29T01:09:55.652Z,3.57
2023-01-29T01:12:01.018Z,3.56
2023-01-29T01:14:08.940Z,3.56
2023-01-29T01:16:16.633Z,3.55
2023-01-29T01:18:25.424Z,3.56
2023-01-29T01:20:32.492Z,3.59
2023-01-29T01:22:39.954Z,3.56
2023-01-29T01:24:53.807Z,3.59
2023-01-29T01:26:58.705Z,3.55
2023-01-29T01:29:03.690Z,3.57
2023-01-29T01:31:14.920Z,3.56
2023-01-29T01:33:20.667Z,3.56
2023-01-29T01:35:28.648Z,3.55
2023-01-29T01:37:33.693Z,3.53
2023-01-29T01:39:39.006Z,3.58
2023-01-29T01:41:44.278Z,3.58
2023-01-29T01:43:54.561Z,3.56
2023-01-29T01:46:02.175Z,3.53
2023-01-29T01:48:14.464Z,3.52
2023-01-29T01:50:25.136Z,3.56
2023-01-29T01:52:35.880Z,3.56
2023-01-29T01:54:40.664Z,3.53
2023-01-29T01:56:52.871Z,3.51
2023-01-29T01:59:00.192Z,3.50
2023-01-29T02:01:08.989Z,3.49
2023-01-29T02:03:29.350Z,3.47
2023-01-29T02:05:50.666Z,3.47
2023-01-29T02:08:10.715Z,3.45
2023-01-29T02:10:19.030Z,3.48
2023-01-29T02:12:25.374Z,3.51
2023-01-29T02:14:32.197Z,3.52
2023-01-29T02:16:38.114Z,3.52
2023-01-29T02:18:43.159Z,3.45
2023-01-29T02:21:00.286Z,3.48
2023-01-29T02:23:49.696Z,3.50
2023-01-29T02:26:13.291Z,3.51
2023-01-29T02:28:42.303Z,3.49
2023-01-29T02:30:57.270Z,3.49
2023-01-29T02:33:09.184Z,3.48
2023-01-29T02:35:28.683Z,3.47
2023-01-29T02:37:39.595Z,3.51
2023-01-29T02:39:56.284Z,3.50
2023-01-29T02:42:12.215Z,3.49
2023-01-29T02:44:27.600Z,3.50
2023-01-29T02:46:38.063Z,3.52
2023-01-29T02:48:48.942Z,3.61
2023-01-29T02:51:01.868Z,3.56
2023-01-29T02:53:15.951Z,3.57
2023-01-29T02:55:27.072Z,3.53
2023-01-29T02:57:36.974Z,3.50
2023-01-29T02:59:51.443Z,3.47
2023-01-29T03:02:01.443Z,3.49
2023-01-29T03:04:12.561Z,3.47
2023-01-29T03:06:28.443Z,3.45
2023-01-29T03:08:44.484Z,3.48
2023-01-29T03:10:59.877Z,3.45
2023-01-29T03:13:09.650Z,3.46
2023-01-29T03:15:26.878Z,3.47
2023-01-29T03:17:40.621Z,3.52
2023-01-29T03:19:51.517Z,3.51
2023-01-29T03:22:02.145Z,3.51
2023-01-29T03:24:24.459Z,3.54
2023-01-29T03:26:41.847Z,3.50
2023-01-29T03:29:02.906Z,3.52
2023-01-29T03:31:27.538Z,3.51
2023-01-29T03:33:36.667Z,3.54
2023-01-29T03:35:50.102Z,3.51
2023-01-29T03:37:57.134Z,3.46
2023-01-29T03:40:02.119Z,3.46
2023-01-29T03:42:16.577Z,3.44
2023-01-29T03:44:29.878Z,3.45
2023-01-29T03:46:47.605Z,3.47
2023-01-29T03:48:59.080Z,3.47
2023-01-29T03:51:18.237Z,3.46
2023-01-29T03:53:28.622Z,3.47
2023-01-29T03:55:41.219Z,3.46
2023-01-29T03:57:57.903Z,3.47
2023-01-29T04:00:09.712Z,3.51
2023-01-29T04:02:28.181Z,3.47
2023-01-29T04:04:37.130Z,3.46
2023-01-29T04:06:46.713Z,3.49
2023-01-29T04:08:59.050Z,3.45
2023-01-29T04:11:13.662Z,3.46
2023-01-29T04:13:24.897Z,3.46
2023-01-29T04:15:36.382Z,3.43
2023-01-29T04:17:48.125Z,3.41
2023-01-29T04:19:54.490Z,3.42
2023-01-29T04:22:06.879Z,3.41
2023-01-29T04:24:15.682Z,3.44
2023-01-29T04:26:34.433Z,3.49
2023-01-29T04:28:54.234Z,3.47
2023-01-29T04:31:07.901Z,3.47
2023-01-29T04:33:32.663Z,3.46
2023-01-29T04:35:53.467Z,3.48
2023-01-29T04:38:09.345Z,3.51
2023-01-29T04:40:30.912Z,3.48
2023-01-29T04:42:47.767Z,3.51
2023-01-29T04:45:01.953Z,3.53
2023-01-29T04:47:22.104Z,3.50
2023-01-29T04:49:39.473Z,3.52
2023-01-29T04:51:53.468Z,3.56
2023-01-29T04:54:05.514Z,3.52
2023-01-29T04:56:16.779Z,3.52
2023-01-29T04:58:29.769Z,3.56
2023-01-29T05:00:40.603Z,3.56
2023-01-29T05:02:48.086Z,3.57
2023-01-29T05:04:58.985Z,3.56
2023-01-29T05:07:07.142Z,3.59
2023-01-29T05:09:13.027Z,3.59
2023-01-29T05:11:24.385Z,3.57
2023-01-29T05:13:32.327Z,3.59
2023-01-29T05:15:45.381Z,3.58
2023-01-29T05:17:49.979Z,3.53
2023-01-29T05:20:02.505Z,3.57
2023-01-29T05:22:12.228Z,3.52
2023-01-29T05:24:19.880Z,3.51
2023-01-29T05:26:37.539Z,3.52
2023-01-29T05:28:42.632Z,3.49
2023-01-29T05:30:51.944Z,3.49
2023-01-29T05:32:57.568Z,3.51
2023-01-29T05:35:05.296Z,3.49
2023-01-29T05:37:10.615Z,3.46
2023-01-29T05:39:15.543Z,3.46
2023-01-29T05:41:24.436Z,3.54
2023-01-29T05:43:29.546Z,3.54
2023-01-29T05:45:37.617Z,3.59
2023-01-29T05:47:42.799Z,3.58
2023-01-29T05:49:48.083Z,3.59
2023-01-29T05:51:56.005Z,3.59
2023-01-29T05:54:00.955Z,3.63
2023-01-29T05:56:07.383Z,3.61
2023-01-29T05:58:12.561Z,3.63
2023-01-29T06:00:23.708Z,3.61
2023-01-29T06:02:28.981Z,3.62
2023-01-29T06:04:33.996Z,3.61
2023-01-29T06:06:41.852Z,3.60
2023-01-29T06:08:49.553Z,3.59
2023-01-29T06:10:56.262Z,3.56
2023-01-29T06:13:03.588Z,3.57
2023-01-29T06:15:12.154Z,3.58
2023-01-29T06:17:16.947Z,3.56
2023-01-29T06:19:21.854Z,3.63
2023-01-29T06:21:27.208Z,3.60
2023-01-29T06:23:32.102Z,3.57
2023-01-29T06:25:39.921Z,3.60
2023-01-29T06:27:45.429Z,3.59
2023-01-29T06:29:53.025Z,3.62
2023-01-29T06:31:58.062Z,3.61
2023-01-29T06:34:03.936Z,3.64
2023-01-29T06:36:13.193Z,3.63
2023-01-29T06:38:18.469Z,3.64
2023-01-29T06:40:25.904Z,3.63
2023-01-29T06:42:33.398Z,3.64
2023-01-29T06:44:38.348Z,3.62
2023-01-29T06:46:43.493Z,3.63
2023-01-29T06:48:48.678Z,3.60
2023-01-29T06:50:55.488Z,3.62
2023-01-29T06:53:03.638Z,3.63
2023-01-29T06:55:12.851Z,3.65
2023-01-29T06:57:20.530Z,3.60
2023-01-29T06:59:28.621Z,3.63
2023-01-29T07:01:36.692Z,3.64
2023-01-29T07:03:44.298Z,3.63
2023-01-29T07:05:58.029Z,3.64
2023-01-29T07:08:04.119Z,3.64
2023-01-29T07:10:12.194Z,3.62
2023-01-29T07:12:17.283Z,3.61
2023-01-29T07:14:22.151Z,3.63
2023-01-29T07:16:30.296Z,3.66
2023-01-29T07:18:35.625Z,3.66
2023-01-29T07:20:41.766Z,3.66
2023-01-29T07:22:46.682Z,3.68
2023-01-29T07:24:51.644Z,3.68
2023-01-29T07:26:57.020Z,3.67
2023-01-29T07:29:03.011Z,3.69
2023-01-29T07:31:08.642Z,3.67
2023-01-29T07:33:17.333Z,3.63
2023-01-29T07:35:22.324Z,3.66
2023-01-29T07:37:27.332Z,3.67
2023-01-29T07:39:33.215Z,3.65
2023-01-29T07:41:38.518Z,3.66
2023-01-29T07:43:43.930Z,3.65
2023-01-29T07:45:48.785Z,3.66
2023-01-29T07:47:56.081Z,3.65
2023-01-29T07:50:03.851Z,3.63
2023-01-29T07:52:10.548Z,3.68
2023-01-29T07:54:15.421Z,3.69
2023-01-29T07:56:20.685Z,3.70
2023-01-29T07:58:26.183Z,3.69
2023-01-29T08:00:32.079Z,3.70
2023-01-29T08:02:37.187Z,3.73
2023-01-29T08:04:42.289Z,3.74
2023-01-29T08:06:49.768Z,3.70
2023-01-29T08:08:56.162Z,3.73
2023-01-29T08:11:07.106Z,3.77
2023-01-29T08:13:12.359Z,3.80
2023-01-29T08:15:19.141Z,3.80
2023-01-29T08:17:24.041Z,3.80
2023-01-29T08:19:29.963Z,3.81
2023-01-29T08:21:36.261Z,3.84
2023-01-29T08:23:44.094Z,3.82
2023-01-29T08:25:49.210Z,3.83
2023-01-29T08:27:54.309Z,3.90
2023-01-29T08:30:00.720Z,3.89
2023-01-29T08:32:08.103Z,3.90
2023-01-29T08:34:12.961Z,3.96
2023-01-29T08:36:21.055Z,3.97
2023-01-29T08:38:25.853Z,3.98
2023-01-29T08:40:36.375Z,4.00
2023-01-29T08:42:41.859Z,4.03
2023-01-29T08:44:46.663Z,4.01
2023-01-29T08:46:51.921Z,4.00
2023-01-29T08:48:56.943Z,4.08
2023-01-29T08:51:07.466Z,4.08
2023-01-29T08:53:14.781Z,4.10
2023-01-29T08:55:20.137Z,4.10
2023-01-29T08:57:30.705Z,4.09
2023-01-29T08:59:36.966Z,4.10
2023-01-29T09:01:41.981Z,4.14
2023-01-29T09:03:47.144Z,4.13
2023-01-29T09:05:52.905Z,4.16
2023-01-29T09:07:59.704Z,4.17
2023-01-29T09:10:05.014Z,4.22
2023-01-29T09:12:10.561Z,4.26
2023-01-29T09:14:18.412Z,4.26
2023-01-29T09:16:23.417Z,4.27
2023-01-29T09:18:28.497Z,4.33
2023-01-29T09:20:33.516Z,4.32
2023-01-29T09:22:41.752Z,4.36
2023-01-29T09:24:48.102Z,4.37
2023-01-29T09:26:52.927Z,4.39
2023-01-29T09:28:58.664Z,4.44
2023-01-29T09:31:07.327Z,4.43
2023-01-29T09:33:12.361Z,4.45
2023-01-29T09:35:17.789Z,4.45
2023-01-29T09:37:24.090Z,4.49
2023-01-29T09:39:30.104Z,4.43
2023-01-29T09:41:46.714Z,4.48
2023-01-29T09:43:56.293Z,4.48
2023-01-29T09:46:08.498Z,4.48
2023-01-29T09:48:15.694Z,4.48
2023-01-29T09:50:24.836Z,4.46
2023-01-29T09:52:33.384Z,4.49
2023-01-29T09:54:54.797Z,4.43
2023-01-29T09:57:00.920Z,4.45
2023-01-29T09:59:08.455Z,4.43
2023-01-29T10:01:25.401Z,4.44
2023-01-29T10:03:46.689Z,4.44
2023-01-29T10:06:02.678Z,4.41
2023-01-29T10:08:48.033Z,4.44
2023-01-29T10:10:54.643Z,4.37
2023-01-29T10:13:10.802Z,4.38
2023-01-29T10:15:32.956Z,4.38
2023-01-29T10:17:56.799Z,4.44
2023-01-29T10:20:28.654Z,4.42
2023-01-29T10:22:59.791Z,4.38
2023-01-29T10:25:07.131Z,4.44
2023-01-29T10:27:20.099Z,4.42
2023-01-29T10:29:25.424Z,4.45
2023-01-29T10:31:36.645Z,4.44
2023-01-29T10:34:00.980Z,4.45
2023-01-29T10:36:12.768Z,4.53
2023-01-29T10:38:41.903Z,4.51
2023-01-29T10:40:54.802Z,4.52
2023-01-29T10:43:07.800Z,4.48
2023-01-29T10:45:26.684Z,4.51
2023-01-29T10:47:46.728Z,4.48
2023-01-29T10:50:11.958Z,4.51
2023-01-29T10:52:34.202Z,4.52
2023-01-29T10:54:53.274Z,4.53
2023-01-29T10:57:10.995Z,4.55
2023-01-29T10:59:33.955Z,4.57
2023-01-29T11:01:39.867Z,4.58
2023-01-29T11:03:49.351Z,4.57
2023-01-29T11:06:02.776Z,4.57
2023-01-29T11:08:16.778Z,4.60
2023-01-29T11:10:25.838Z,4.60
2023-01-29T11:12:33.989Z,4.59
2023-01-29T11:14:46.915Z,4.60
2023-01-29T11:16:52.402Z,4.65
2023-01-29T11:19:00.383Z,4.58
2023-01-29T11:21:08.310Z,4.63
2023-01-29T11:23:30.185Z,4.62
2023-01-29T11:25:35.656Z,4.64
2023-01-29T11:27:46.767Z,4.64
2023-01-29T11:29:52.901Z,4.68
2023-01-29T11:31:58.762Z,4.70
2023-01-29T11:34:08.568Z,4.68
2023-01-29T11:36:45.309Z,4.64
2023-01-29T11:38:50.634Z,4.67
2023-01-29T11:40:59.794Z,4.68
2023-01-29T11:43:21.050Z,4.71
2023-01-29T11:45:32.751Z,4.68
2023-01-29T11:47:39.916Z,4.68
2023-01-29T11:49:49.469Z,4.69
2023-01-29T11:52:05.659Z,4.67
2023-01-29T11:54:20.615Z,4.68
2023-01-29T11:56:30.417Z,4.68
2023-01-29T11:58:38.498Z,4.68
2023-01-29T12:00:48.861Z,4.72
2023-01-29T12:02:58.912Z,4.73
2023-01-29T12:05:08.650Z,4.74
2023-01-29T12:07:20.912Z,4.74
2023-01-29T12:09:30.259Z,4.76
2023-01-29T12:11:36.937Z,4.79
2023-01-29T12:13:43.436Z,4.81
2023-01-29T12:15:54.714Z,4.78
2023-01-29T12:18:11.786Z,4.80
2023-01-29T12:20:21.872Z,4.83
2023-01-29T12:22:46.150Z,4.86
2023-01-29T12:24:58.789Z,4.93
2023-01-29T12:27:17.452Z,4.98
2023-01-29T12:29:35.020Z,5.05
2023-01-29T12:31:46.901Z,5.14
2023-01-29T12:33:56.867Z,5.18
2023-01-29T12:36:11.013Z,5.25
2023-01-29T12:38:21.987Z,5.33
2023-01-29T12:40:33.271Z,5.35
2023-01-29T12:42:41.364Z,5.35
2023-01-29T12:44:50.000Z,5.30
2023-01-29T12:46:58.697Z,5.27
2023-01-29T12:49:10.654Z,5.22
2023-01-29T12:51:24.613Z,5.19
2023-01-29T12:53:39.823Z,5.16
2023-01-29T12:55:54.268Z,5.16
2023-01-29T12:58:01.073Z,5.07
2023-01-29T13:00:11.988Z,5.20
2023-01-29T13:02:26.771Z,5.13
2023-01-29T13:04:49.849Z,5.15
2023-01-29T13:07:00.175Z,5.14
2023-01-29T13:09:12.674Z,5.22
2023-01-29T13:11:22.622Z,5.24
2023-01-29T13:13:33.809Z,5.20
2023-01-29T13:15:42.109Z,5.23
2023-01-29T13:17:51.228Z,5.24
2023-01-29T13:20:00.827Z,5.22
2023-01-29T13:22:14.091Z,5.32
2023-01-29T13:24:25.311Z,5.40
2023-01-29T13:26:31.218Z,5.35
2023-01-29T13:28:40.152Z,5.45
2023-01-29T13:30:45.672Z,5.48
2023-01-29T13:32:55.730Z,5.49
2023-01-29T13:35:03.903Z,5.46
2023-01-29T13:37:17.552Z,5.51
2023-01-29T13:39:44.959Z,5.44
2023-01-29T13:41:50.278Z,5.45
2023-01-29T13:43:55.608Z,5.47
2023-01-29T13:46:01.606Z,5.46
2023-01-29T13:48:15.737Z,5.57
2023-01-29T13:50:31.406Z,5.62
2023-01-29T13:52:44.709Z,5.59
2023-01-29T13:55:00.792Z,5.49
2023-01-29T13:57:09.051Z,5.48
2023-01-29T13:59:48.349Z,5.47
2023-01-29T14:02:24.785Z,5.42
2023-01-29T14:04:33.340Z,5.46
2023-01-29T14:06:54.643Z,5.41
2023-01-29T14:09:03.910Z,5.44
2023-01-29T14:11:41.515Z,5.43
2023-01-29T14:13:52.852Z,5.40
2023-01-29T14:16:27.657Z,5.42
2023-01-29T14:18:37.852Z,5.39
2023-01-29T14:20:51.832Z,5.43
2023-01-29T14:23:00.487Z,5.29
2023-01-29T14:25:08.531Z,5.25
2023-01-29T14:27:28.846Z,5.28
2023-01-29T14:29:47.797Z,5.23
2023-01-29T14:31:57.154Z,5.28
2023-01-29T14:34:06.896Z,5.23
2023-01-29T14:36:18.941Z,5.21
2023-01-29T14:38:27.250Z,5.22
2023-01-29T14:40:38.243Z,5.20
2023-01-29T14:43:00.056Z,5.18
2023-01-29T14:45:12.749Z,5.17
2023-01-29T14:47:22.526Z,5.07
2023-01-29T14:49:54.180Z,5.05
2023-01-29T14:52:00.934Z,5.04
2023-01-29T14:54:16.933Z,5.03
2023-01-29T14:56:33.323Z,5.12
2023-01-29T14:58:49.611Z,5.04
2023-01-29T15:01:00.574Z,5.02
2023-01-29T15:03:08.178Z,5.06
2023-01-29T15:05:22.654Z,5.01
2023-01-29T15:07:36.367Z,5.02
2023-01-29T15:09:45.794Z,5.03
2023-01-29T15:11:59.071Z,5.00
2023-01-29T15:14:17.177Z,4.96
2023-01-29T15:16:30.258Z,4.94
2023-01-29T15:18:40.565Z,4.93
2023-01-29T15:20:46.995Z,4.93
2023-01-29T15:22:52.151Z,4.91
2023-01-29T15:25:10.728Z,4.91
2023-01-29T15:27:24.044Z,4.84
2023-01-29T15:29:30.486Z,4.80
2023-01-29T15:31:38.620Z,4.76
2023-01-29T15:33:48.884Z,4.68
2023-01-29T15:36:08.427Z,4.68
2023-01-29T15:38:20.483Z,4.70
2023-01-29T15:40:25.804Z,4.60
2023-01-29T15:42:31.588Z,4.61
2023-01-29T15:44:38.091Z,4.67
2023-01-29T15:46:50.817Z,4.67
2023-01-29T15:48:57.412Z,4.72
2023-01-29T15:51:05.509Z,4.68
2023-01-29T15:53:17.396Z,4.70
2023-01-29T15:55:25.679Z,4.72
2023-01-29T15:57:37.482Z,4.73
2023-01-29T15:59:51.988Z,4.73
2023-01-29T16:02:20.756Z,4.73
2023-01-29T16:04:30.394Z,4.74
2023-01-29T16:06:41.933Z,4.74
2023-01-29T16:08:49.719Z,4.76
2023-01-29T16:11:00.112Z,4.77
2023-01-29T16:13:44.758Z,4.75
2023-01-29T16:16:00.157Z,4.76
2023-01-29T16:18:24.328Z,4.77
2023-01-29T16:20:46.869Z,4.77
2023-01-29T16:22:51.862Z,4.75
2023-01-29T16:25:04.215Z,4.75
2023-01-29T16:27:14.363Z,4.75
2023-01-29T16:29:22.565Z,4.73
2023-01-29T16:31:30.961Z,4.81
2023-01-29T16:33:41.019Z,4.78
2023-01-29T16:35:46.698Z,4.77
2023-01-29T16:37:53.632Z,4.78
2023-01-29T16:39:59.960Z,4.76
2023-01-29T16:42:25.398Z,4.77
2023-01-29T16:44:38.044Z,4.75
2023-01-29T16:46:51.263Z,4.81
2023-01-29T16:49:00.780Z,4.79
2023-01-29T16:51:12.242Z,4.79
2023-01-29T16:53:23.522Z,4.81
2023-01-29T16:55:29.881Z,4.82
2023-01-29T16:57:36.962Z,4.78
2023-01-29T16:59:43.781Z,4.74
2023-01-29T17:01:49.623Z,4.79
2023-01-29T17:04:05.460Z,4.81
2023-01-29T17:06:15.741Z,4.79
2023-01-29T17:08:27.520Z,4.76
2023-01-29T17:10:37.157Z,4.75
2023-01-29T17:12:42.591Z,4.73
2023-01-29T17:14:56.779Z,4.72
2023-01-29T17:17:07.043Z,4.68
2023-01-29T17:19:24.474Z,4.71
2023-01-29T17:21:30.403Z,4.64
2023-01-29T17:23:35.406Z,4.70
2023-01-29T17:25:41.050Z,4.66
2023-01-29T17:27:51.926Z,4.67
2023-01-29T17:29:56.963Z,4.66
2023-01-29T17:32:02.655Z,4.67
2023-01-29T17:34:14.407Z,4.62
2023-01-29T17:36:22.258Z,4.64
2023-01-29T17:38:28.688Z,4.67
2023-01-29T17:40:40.956Z,4.61
2023-01-29T17:42:47.131Z,4.60
2023-01-29T17:44:52.140Z,4.61
2023-01-29T17:46:58.818Z,4.60
2023-01-29T17:49:04.616Z,4.60
2023-01-29T17:51:17.399Z,4.62
2023-01-29T17:53:43.241Z,4.59
2023-01-29T17:55:51.908Z,4.62
2023-01-29T17:57:56.857Z,4.64
2023-01-29T18:00:05.643Z,4.58
2023-01-29T18:02:29.709Z,4.69
2023-01-29T18:04:38.638Z,4.63
2023-01-29T18:06:44.971Z,4.68
2023-01-29T18:08:52.970Z,4.65
2023-01-29T18:10:58.624Z,4.67
2023-01-29T18:13:03.974Z,4.66
2023-01-29T18:15:11.034Z,4.72
2023-01-29T18:17:22.372Z,4.73
2023-01-29T18:19:31.355Z,4.72
2023-01-29T18:21:43.005Z,4.72
2023-01-29T18:23:54.337Z,4.73
2023-01-29T18:26:00.900Z,4.76
2023-01-29T18:28:08.143Z,4.74
2023-01-29T18:30:16.393Z,4.77
2023-01-29T18:32:23.241Z,4.77
2023-01-29T18:34:29.395Z,4.80
2023-01-29T18:36:37.144Z,4.76
2023-01-29T18:38:42.134Z,4.75
2023-01-29T18:40:50.331Z,4.77
2023-01-29T18:42:58.823Z,4.81
2023-01-29T18:45:04.220Z,4.84
2023-01-29T18:47:09.817Z,4.87
2023-01-29T18:49:15.451Z,4.83
2023-01-29T18:51:20.609Z,4.83
2023-01-29T18:53:25.706Z,4.84
2023-01-29T18:55:33.875Z,4.81
2023-01-29T18:58:26.067Z,4.87
2023-01-29T19:00:08.315Z,4.84
2023-01-29T19:02:16.669Z,4.77
2023-01-29T19:04:23.047Z,4.79
2023-01-29T19:06:28.814Z,4.81
2023-01-29T19:08:34.305Z,4.83
2023-01-29T19:10:46.150Z,4.83
2023-01-29T19:12:54.254Z,4.80
2023-01-29T19:15:00.280Z,4.89
2023-01-29T19:17:05.544Z,4.85
2023-01-29T19:19:12.184Z,4.93
2023-01-29T19:21:19.209Z,4.94
2023-01-29T19:23:24.747Z,4.94
2023-01-29T19:25:30.470Z,4.99
2023-01-29T19:27:35.645Z,4.98
2023-01-29T19:29:43.216Z,5.02
2023-01-29T19:31:51.084Z,5.02
2023-01-29T19:33:56.091Z,5.07
2023-01-29T19:36:03.018Z,5.11
2023-01-29T19:38:08.373Z,5.12
2023-01-29T19:40:17.108Z,5.17
2023-01-29T19:42:22.561Z,5.13
2023-01-29T19:44:28.020Z,5.18
2023-01-29T19:46:36.770Z,5.26
2023-01-29T19:48:41.818Z,5.27
2023-01-29T19:50:47.198Z,5.29
2023-01-29T19:52:53.493Z,5.32
2023-01-29T19:54:59.152Z,5.33
2023-01-29T19:57:04.620Z,5.34
2023-01-29T19:59:10.447Z,5.36
2023-01-29T20:01:18.494Z,5.38
2023-01-29T20:03:26.766Z,5.38
2023-01-29T20:05:33.086Z,5.40
2023-01-29T20:07:40.352Z,5.39
2023-01-29T20:09:45.758Z,5.38
2023-01-29T20:11:52.045Z,5.36
2023-01-29T20:13:57.461Z,5.38
2023-01-29T20:16:05.700Z,5.36
2023-01-29T20:18:12.081Z,5.30
2023-01-29T20:20:22.194Z,5.32
2023-01-29T20:22:29.881Z,5.30
2023-01-29T20:24:40.067Z,5.32
2023-01-29T20:26:49.324Z,5.35
2023-01-29T20:28:58.718Z,5.34
2023-01-29T20:31:04.308Z,5.33
2023-01-29T20:33:12.644Z,5.36
2023-01-29T20:35:20.658Z,5.35
2023-01-29T20:37:25.450Z,5.37
2023-01-29T20:39:30.413Z,5.38
2023-01-29T20:41:35.659Z,5.41
2023-01-29T20:43:40.764Z,5.44
2023-01-29T20:45:45.971Z,5.44
2023-01-29T20:47:51.854Z,5.46
2023-01-29T20:49:56.942Z,5.49
2023-01-29T20:52:06.498Z,5.50
2023-01-29T20:54:12.720Z,5.54
2023-01-29T20:56:32.078Z,5.58
2023-01-29T20:58:45.330Z,5.59
2023-01-29T21:00:50.151Z,5.64
2023-01-29T21:02:55.347Z,5.67
2023-01-29T21:05:00.471Z,5.68
2023-01-29T21:07:08.179Z,5.67
2023-01-29T21:09:13.634Z,5.69
2023-01-29T21:11:18.524Z,5.70
2023-01-29T21:13:23.671Z,5.71
2023-01-29T21:15:29.527Z,5.72
2023-01-29T21:17:37.522Z,5.77
2023-01-29T21:19:45.737Z,5.72
2023-01-29T21:21:53.613Z,5.76
2023-01-29T21:24:01.410Z,5.77
2023-01-29T21:26:07.498Z,5.84
2023-01-29T21:28:12.298Z,5.80
2023-01-29T21:30:21.045Z,5.80
2023-01-29T21:32:28.963Z,5.83
2023-01-29T21:34:33.920Z,5.83
2023-01-29T21:36:42.164Z,5.82
2023-01-29T21:38:47.052Z,5.84
2023-01-29T21:40:54.450Z,5.86
2023-01-29T21:43:13.730Z,5.84
2023-01-29T21:45:18.948Z,5.80
2023-01-29T21:47:23.972Z,5.88
2023-01-29T21:49:30.093Z,5.87
2023-01-29T21:51:35.328Z,5.86
2023-01-29T21:53:40.611Z,5.88
2023-01-29T21:55:45.708Z,5.93
2023-01-29T21:57:54.050Z,6.01
2023-01-29T21:59:59.858Z,6.01
2023-01-29T22:02:07.510Z,6.06
2023-01-29T22:04:12.727Z,6.10
2023-01-29T22:06:22.707Z,6.11
2023-01-29T22:08:28.579Z,6.11
2023-01-29T22:10:36.791Z,6.19
2023-01-29T22:12:41.963Z,6.18
2023-01-29T22:14:49.721Z,6.19
2023-01-29T22:16:54.695Z,6.23
2023-01-29T22:19:00.948Z,6.29
2023-01-29T22:21:06.587Z,6.33
2023-01-29T22:23:12.719Z,6.34
2023-01-29T22:25:20.657Z,6.35
2023-01-29T22:27:25.712Z,6.47
2023-01-29T22:29:30.445Z,6.54
2023-01-29T22:31:37.782Z,6.51
2023-01-29T22:33:42.743Z,6.58
2023-01-29T22:35:56.068Z,6.62
2023-01-29T22:38:00.883Z,6.63
2023-01-29T22:40:08.675Z,6.60
2023-01-29T22:42:13.888Z,6.63
2023-01-29T22:44:18.963Z,6.65
2023-01-29T22:46:27.388Z,6.69
2023-01-29T22:48:37.383Z,6.69
2023-01-29T22:50:42.789Z,6.71
2023-01-29T22:52:54.248Z,6.76
2023-01-29T22:55:01.687Z,6.74
2023-01-29T22:57:06.870Z,6.85
2023-01-29T22:59:14.632Z,6.87
2023-01-29T23:01:24.219Z,6.90
2023-01-29T23:03:30.128Z,6.88
2023-01-29T23:05:37.627Z,6.88
2023-01-29T23:07:42.980Z,6.90
2023-01-29T23:09:50.905Z,6.91
2023-01-29T23:11:55.777Z,6.95
2023-01-29T23:14:00.847Z,6.95
2023-01-29T23:16:05.932Z,6.99
2023-01-29T23:18:11.594Z,7.00
2023-01-29T23:20:20.753Z,7.04
2023-01-29T23:22:28.871Z,7.06
2023-01-29T23:24:33.982Z,7.04
2023-01-29T23:26:53.545Z,7.01
2023-01-29T23:28:59.708Z,7.07
2023-01-29T23:31:04.767Z,7.13
2023-01-29T23:33:12.655Z,7.11
2023-01-29T23:35:18.986Z,7.18
2023-01-29T23:37:23.882Z,7.21
2023-01-29T23:39:31.600Z,7.21
2023-01-29T23:41:36.589Z,7.28
2023-01-29T23:43:41.885Z,7.26
2023-01-29T23:45:47.101Z,7.23
2023-01-29T23:47:52.258Z,7.24
2023-01-29T23:49:57.090Z,7.25
2023-01-29T23:52:02.921Z,7.25
2023-01-29T23:54:08.303Z,7.24
2023-01-29T23:56:16.052Z,7.23
2023-01-29T23:58:21.095Z,7.25
